Аэропорт: Павлодар. Павлодар

ICAO: UASP

METAR:
2022-06-26 10:30:00
UASP 261030Z 30006MPS 260V330 CAVOK 32/14 Q0999 NOSIG RMK QFE738/0984
METAR:
2022-06-26 08:02:00
TAF UASP 260802Z 2609/2618 29005G10MPS 9999 BKN030 TEMPO 2609/2612 30010G16MPS FM261400 35005MPS 3100 -SHRA OVC020CB TEMPO 2616/2618 05005MPS 2000 SHRA BKN011CB